Time;durP1;ratioP1;P1;durP2;ratioP2;P2;SDS_P1;SDS_P2;PMS_P1;PMS_P2;Temp;Humidity;BMP_temperature;BMP_pressure;BME280_temperature;BME280_humidity;BME280_pressure;Samples;Min_cycle;Max_cycle;Signal;HPM_P1;HPM_P2
2022/05/26 00:01:21;;;;;;;24.83;9.90;;;;;;;19.35;100.00;100652.72;5043486;28;20034;-88
2022/05/26 00:03:47;;;;;;;26.33;9.73;;;;;;;19.25;100.00;100647.81;5015677;28;20496;-91
2022/05/26 00:06:16;;;;;;;23.98;10.18;;;;;;;19.24;100.00;100650.69;5033458;28;20488;-90
2022/05/26 00:08:41;;;;;;;30.58;9.32;;;;;;;19.38;100.00;100652.28;5036328;28;20523;-91
2022/05/26 00:11:13;;;;;;;20.65;8.80;;;;;;;19.58;100.00;100661.06;5037992;28;20072;-91
2022/05/26 00:13:41;;;;;;;15.82;8.75;;;;;;;19.60;100.00;100653.59;5019982;28;20057;-90
2022/05/26 00:16:07;;;;;;;18.73;9.00;;;;;;;19.54;100.00;100657.16;5037605;28;20037;-89
2022/05/26 00:18:33;;;;;;;20.63;8.65;;;;;;;19.64;100.00;100662.91;5020182;28;20029;-89
2022/05/26 00:20:59;;;;;;;25.88;9.55;;;;;;;19.54;100.00;100657.16;5019367;28;20048;-88
2022/05/26 00:23:25;;;;;;;26.48;9.48;;;;;;;19.61;100.00;100657.94;5019275;28;20045;-86
2022/05/26 00:25:51;;;;;;;19.38;9.32;;;;;;;19.67;100.00;100662.44;5037175;28;20038;-86
2022/05/26 00:28:17;;;;;;;27.83;9.10;;;;;;;19.79;100.00;100666.06;5003317;28;20040;-90
2022/05/26 00:30:44;;;;;;;20.58;8.85;;;;;;;19.68;100.00;100666.81;5019238;28;20033;-90
2022/05/26 00:33:10;;;;;;;18.95;9.00;;;;;;;19.74;100.00;100657.03;5036938;28;20029;-89
2022/05/26 00:35:39;;;;;;;20.90;8.73;;;;;;;19.83;100.00;100664.59;5036775;28;20040;-88
2022/05/26 00:38:09;;;;;;;28.65;8.07;;;;;;;19.96;100.00;100664.50;5019483;28;20037;-89
2022/05/26 00:40:36;;;;;;;18.13;8.48;;;;;;;19.72;100.00;100664.50;5038166;28;20061;-88
2022/05/26 00:43:02;;;;;;;24.08;9.05;;;;;;;19.77;100.00;100661.97;5038612;28;20125;-88
2022/05/26 00:45:36;;;;;;;22.98;9.60;;;;;;;19.68;100.00;100658.72;5020965;28;20063;-88
2022/05/26 00:48:07;;;;;;;20.58;8.50;;;;;;;19.66;100.00;100655.41;5037154;28;20040;-89
2022/05/26 00:50:42;;;;;;;24.77;9.23;;;;;;;19.70;100.00;100651.25;5038313;28;20546;-89
2022/05/26 00:53:15;;;;;;;39.67;9.35;;;;;;;19.48;100.00;100653.50;5036394;28;20034;-86
2022/05/26 00:55:48;;;;;;;26.65;9.20;;;;;;;19.60;100.00;100642.84;5036580;28;20468;-91
2022/05/26 00:58:24;;;;;;;16.30;8.93;;;;;;;19.62;100.00;100638.06;5036382;28;20052;-91
2022/05/26 01:00:50;;;;;;;20.33;8.55;;;;;;;19.77;100.00;100651.22;5018809;28;20174;-89
2022/05/26 01:03:28;;;;;;;18.77;8.45;;;;;;;19.92;100.00;100633.69;5036410;28;20433;-87
2022/05/26 01:06:02;;;;;;;18.23;8.80;;;;;;;20.02;100.00;100634.00;5018364;28;20041;-88
2022/05/26 01:08:45;;;;;;;18.17;8.57;;;;;;;20.00;100.00;100640.66;5036543;28;20070;-88
2022/05/26 01:11:11;;;;;;;18.98;8.70;;;;;;;20.00;100.00;100644.19;5019127;28;20037;-89
2022/05/26 01:13:49;;;;;;;17.20;8.65;;;;;;;19.98;100.00;100648.97;5037201;28;20033;-88
2022/05/26 01:16:26;;;;;;;22.77;9.73;;;;;;;20.02;100.00;100655.53;5037079;28;20041;-89
2022/05/26 01:19:29;;;;;;;16.63;8.43;;;;;;;19.91;100.00;100661.66;5022815;28;20037;-86
2022/05/26 01:22:19;;;;;;;16.27;8.05;;;;;;;19.97;100.00;100658.09;5037038;28;20030;-89
2022/05/26 01:25:10;;;;;;;16.23;8.35;;;;;;;19.90;100.00;100662.69;5035618;28;20489;-91
2022/05/26 01:27:37;;;;;;;22.05;8.55;;;;;;;19.88;100.00;100651.34;5035797;28;20129;-90
2022/05/26 01:30:12;;;;;;;21.50;8.27;;;;;;;19.96;100.00;100656.44;5036046;28;20034;-88
2022/05/26 01:32:48;;;;;;;19.70;8.80;;;;;;;19.95;100.00;100648.59;5018345;28;20073;-90
2022/05/26 01:35:26;;;;;;;18.83;8.65;;;;;;;20.04;100.00;100656.16;5017986;28;20045;-89
2022/05/26 01:38:16;;;;;;;26.45;8.98;;;;;;;19.78;100.00;100642.09;5018597;28;20044;-89
2022/05/26 01:41:03;;;;;;;21.05;8.60;;;;;;;19.87;100.00;100648.84;5017916;28;20056;-88
2022/05/26 01:43:41;;;;;;;16.95;8.30;;;;;;;19.77;100.00;100638.59;5036027;28;20041;-88
2022/05/26 01:46:25;;;;;;;18.00;9.00;;;;;;;19.65;100.00;100637.66;5020257;28;20065;-86
2022/05/26 01:49:18;;;;;;;21.00;8.70;;;;;;;19.61;100.00;100639.13;5037651;28;20037;-89
2022/05/26 01:52:14;;;;;;;22.40;8.93;;;;;;;19.70;100.00;100647.75;5017327;28;20088;-91
2022/05/26 01:55:02;;;;;;;20.65;9.70;;;;;;;19.88;100.00;100651.34;5017040;28;20493;-91
2022/05/26 01:57:44;;;;;;;22.65;10.07;;;;;;;19.86;100.00;100655.25;5017782;28;20025;-91
2022/05/26 02:00:14;;;;;;;18.65;8.82;;;;;;;19.74;100.00;100657.84;5035702;28;20030;-91
2022/05/26 02:02:46;;;;;;;18.20;9.18;;;;;;;19.68;100.00;100652.53;5035563;28;20036;-90
2022/05/26 02:05:21;;;;;;;18.17;9.35;;;;;;;19.58;100.00;100658.38;5017786;28;20034;-90
2022/05/26 02:08:04;;;;;;;24.60;9.68;;;;;;;19.55;100.00;100653.44;5017625;28;20048;-88
2022/05/26 02:10:46;;;;;;;18.00;9.65;;;;;;;19.41;100.00;100654.56;5017917;28;20065;-90
2022/05/26 02:13:20;;;;;;;23.75;10.02;;;;;;;19.23;100.00;100649.88;5034744;28;20064;-90
2022/05/26 02:15:50;;;;;;;18.33;10.27;;;;;;;19.14;100.00;100645.78;5017916;28;20494;-89
2022/05/26 02:18:26;;;;;;;25.23;10.07;;;;;;;19.21;100.00;100653.81;5035795;28;20083;-92
2022/05/26 02:21:00;;;;;;;22.88;10.45;;;;;;;19.27;100.00;100639.53;5017398;28;20059;-88
2022/05/26 02:23:37;;;;;;;16.30;9.77;;;;;;;19.40;100.00;100642.13;5017063;28;20107;-88
2022/05/26 02:26:04;;;;;;;26.25;10.30;;;;;;;19.41;100.00;100635.75;5017562;28;20450;-87
2022/05/26 02:29:51;;;;;;;17.10;9.23;;;;;;;19.35;100.00;100628.53;5035814;28;20029;-87
2022/05/26 02:31:24;;;;;;;25.60;10.15;;;;;;;19.25;100.00;100637.06;5037149;28;20029;-87
2022/05/26 02:33:54;;;;;;;26.25;9.80;;;;;;;19.29;100.00;100632.88;5022786;28;20392;-88
2022/05/26 02:36:20;;;;;;;23.52;11.13;;;;;;;19.05;100.00;100636.34;5021865;28;20084;-91
2022/05/26 02:38:46;;;;;;;20.45;10.13;;;;;;;18.85;100.00;100632.91;5046410;28;20096;-87
2022/05/26 02:41:13;;;;;;;19.30;10.50;;;;;;;18.85;100.00;100631.06;5036715;28;20133;-90
2022/05/26 02:43:39;;;;;;;24.45;11.13;;;;;;;18.80;100.00;100633.56;5036242;28;20033;-89
2022/05/26 02:46:29;;;;;;;23.23;10.93;;;;;;;18.77;100.00;100625.09;5034983;28;20038;-90
2022/05/26 02:49:27;;;;;;;27.90;11.68;;;;;;;18.75;100.00;100619.94;5036926;28;20052;-88
2022/05/26 02:51:58;;;;;;;24.40;11.85;;;;;;;18.71;100.00;100637.53;5020989;28;20041;-88
2022/05/26 02:55:16;;;;;;;23.88;10.90;;;;;;;18.72;100.00;100636.50;5034442;28;20048;-89
2022/05/26 02:57:59;;;;;;;22.27;11.90;;;;;;;18.75;100.00;100644.13;4976720;28;20045;-89
2022/05/26 03:00:52;;;;;;;18.45;11.23;;;;;;;18.65;100.00;100649.09;5016620;28;20064;-89
2022/05/26 03:03:27;;;;;;;;;;;;;;;18.58;100.00;100645.63;4972552;28;20045;-88
2022/05/26 03:06:14;;;;;;;19.42;11.93;;;;;;;18.54;100.00;100644.38;5033434;28;19974;-88
2022/05/26 03:08:42;;;;;;;22.95;11.70;;;;;;;18.50;100.00;100640.47;5033826;28;20076;-90
2022/05/26 03:11:16;;;;;;;26.65;11.50;;;;;;;18.52;100.00;100649.16;5016818;28;20037;-89
2022/05/26 03:13:41;;;;;;;25.70;11.65;;;;;;;18.64;100.00;100646.63;5016298;28;20053;-90
2022/05/26 03:16:08;;;;;;;16.10;10.55;;;;;;;18.74;100.00;100638.94;5034597;28;20453;-89
2022/05/26 03:18:34;;;;;;;23.88;10.82;;;;;;;18.90;100.00;100646.53;5018842;28;20029;-89
2022/05/26 03:21:03;;;;;;;23.95;10.57;;;;;;;19.08;100.00;100646.66;5036219;28;20239;-89
2022/05/26 03:23:30;;;;;;;25.92;10.15;;;;;;;19.21;100.00;100651.13;5017061;28;20033;-90
2022/05/26 03:25:57;;;;;;;17.45;10.43;;;;;;;19.34;100.00;100651.06;5017068;28;20397;-90
2022/05/26 03:28:27;;;;;;;24.30;11.02;;;;;;;19.22;100.00;100658.16;5017163;28;20107;-91
2022/05/26 03:30:57;;;;;;;14.48;9.98;;;;;;;19.40;100.00;100655.56;5034287;28;20484;-89
2022/05/26 03:33:22;;;;;;;19.92;10.65;;;;;;;19.39;100.00;100660.13;5033532;28;20028;-88
2022/05/26 03:41:21;;;;;;;18.80;10.30;;;;;;;19.03;100.00;100674.16;5033342;28;20033;-90
2022/05/26 03:43:52;;;;;;;20.45;11.00;;;;;;;19.04;100.00;100673.13;5033608;28;20065;-91
2022/05/26 03:46:18;;;;;;;23.67;10.52;;;;;;;18.98;100.00;100681.22;5015812;28;20128;-92
2022/05/26 03:48:43;;;;;;;18.58;11.75;;;;;;;18.83;100.00;100676.09;5016115;28;20167;-89
2022/05/26 03:51:09;;;;;;;22.58;11.65;;;;;;;18.80;100.00;100684.56;5015993;28;20045;-91
2022/05/26 03:53:35;;;;;;;33.50;12.63;;;;;;;18.75;100.00;100692.44;5016398;28;20539;-89
2022/05/26 03:56:02;;;;;;;30.58;12.68;;;;;;;18.78;100.00;100702.78;5023055;28;20060;-90
2022/05/26 03:58:32;;;;;;;19.02;11.73;;;;;;;18.85;100.00;100705.44;5052065;28;20024;-90
2022/05/26 04:01:29;;;;;;;33.22;12.15;;;;;;;18.86;100.00;100701.69;5047553;28;20033;-90
2022/05/26 04:04:13;;;;;;;19.75;11.90;;;;;;;18.88;100.00;100713.91;5047489;28;20048;-93
2022/05/26 04:06:38;;;;;;;20.70;11.40;;;;;;;18.98;100.00;100716.97;5030120;28;20033;-93
2022/05/26 04:09:27;;;;;;;17.45;11.00;;;;;;;18.93;100.00;100713.25;5046586;23;20057;-92
2022/05/26 04:11:54;;;;;;;19.77;11.30;;;;;;;18.97;100.00;100712.63;5006263;28;20033;-87
2022/05/26 04:14:21;;;;;;;25.98;11.50;;;;;;;19.01;100.00;100715.72;5007687;28;20088;-89
2022/05/26 04:16:47;;;;;;;25.77;12.40;;;;;;;18.92;100.00;100717.81;5019501;28;20045;-88
2022/05/26 04:19:20;;;;;;;25.38;11.63;;;;;;;18.90;100.00;100719.03;5006258;28;20030;-88
2022/05/26 04:24:32;;;;;;;23.92;12.23;;;;;;;18.97;100.00;100720.69;5014880;28;20457;-93
2022/05/26 04:26:58;;;;;;;20.02;11.90;;;;;;;19.03;100.00;100725.19;5019275;28;20097;-90
2022/05/26 04:29:25;;;;;;;19.95;12.95;;;;;;;19.06;100.00;100721.25;5019727;28;20489;-91
2022/05/26 04:31:56;;;;;;;23.63;12.02;;;;;;;19.12;100.00;100723.13;5018901;28;20084;-92
2022/05/26 04:34:24;;;;;;;20.42;12.00;;;;;;;19.23;100.00;100729.66;4985986;28;20033;-89
2022/05/26 04:37:39;;;;;;;19.65;11.52;;;;;;;19.25;100.00;100739.19;5017990;28;20441;-90
2022/05/26 04:40:08;;;;;;;20.52;11.98;;;;;;;19.21;100.00;100750.56;4995227;28;20037;-89
2022/05/26 04:42:34;;;;;;;22.38;12.65;;;;;;;19.30;100.00;100751.97;4996876;28;20523;-91
2022/05/26 04:45:00;;;;;;;31.00;12.68;;;;;;;19.30;100.00;100758.16;4999124;28;20030;-93
2022/05/26 04:47:26;;;;;;;22.42;12.85;;;;;;;19.33;100.00;100762.28;5022184;28;20034;-89
2022/05/26 04:49:52;;;;;;;24.65;12.57;;;;;;;19.31;100.00;100770.56;5024949;28;20527;-85
2022/05/26 04:52:21;;;;;;;24.08;13.35;;;;;;;19.34;100.00;100769.31;5022206;28;20473;-88
2022/05/26 04:54:47;;;;;;;34.50;13.73;;;;;;;19.35;100.00;100766.44;5020881;28;20041;-90
2022/05/26 04:57:15;;;;;;;25.27;13.40;;;;;;;19.38;100.00;100768.69;4981611;28;20035;-87
2022/05/26 04:59:41;;;;;;;30.70;13.23;;;;;;;19.46;100.00;100767.63;5013950;28;20058;-90
2022/05/26 05:02:16;;;;;;;22.60;14.10;;;;;;;19.47;100.00;100774.66;5014057;28;20064;-89
2022/05/26 05:04:44;;;;;;;25.75;14.07;;;;;;;19.53;100.00;100768.44;5017665;28;20034;-91
2022/05/26 05:07:09;;;;;;;23.65;13.07;;;;;;;19.54;100.00;100775.47;4998257;28;20378;-86
2022/05/26 05:09:37;;;;;;;23.73;12.68;;;;;;;19.56;100.00;100765.31;5015441;28;20045;-87
2022/05/26 05:12:04;;;;;;;22.00;11.85;;;;;;;19.62;100.00;100769.81;4984856;28;20041;-87
2022/05/26 05:14:34;;;;;;;21.35;12.55;;;;;;;19.66;100.00;100767.53;5001294;28;20058;-88
2022/05/26 05:17:00;;;;;;;27.50;12.88;;;;;;;19.66;100.00;100772.91;4995185;28;20034;-88
2022/05/26 05:19:25;;;;;;;28.58;13.32;;;;;;;19.67;100.00;100791.53;5001055;28;20481;-89
2022/05/26 05:21:56;;;;;;;27.33;12.82;;;;;;;19.60;100.00;100791.56;4996557;28;20077;-92
2022/05/26 05:24:37;;;;;;;26.77;13.23;;;;;;;19.67;100.00;100785.31;5006224;28;20041;-87
2022/05/26 05:27:12;;;;;;;27.90;13.35;;;;;;;19.72;100.00;100799.75;5008123;28;20038;-89
2022/05/26 05:29:42;;;;;;;27.88;13.32;;;;;;;19.85;100.00;100805.06;5009642;28;20061;-89
2022/05/26 05:32:15;;;;;;;28.25;13.65;;;;;;;19.94;100.00;100811.88;4994786;28;20061;-89
2022/05/26 05:34:48;;;;;;;31.27;13.50;;;;;;;19.85;100.00;100817.72;4964125;28;20038;-89
2022/05/26 05:37:13;;;;;;;36.58;13.00;;;;;;;19.84;100.00;100819.59;5014946;28;20034;-89
2022/05/26 05:39:39;;;;;;;29.30;12.30;;;;;;;19.89;100.00;100829.69;5016961;28;20100;-90
2022/05/26 05:42:05;;;;;;;26.58;13.38;;;;;;;19.81;100.00;100822.72;5015040;28;20061;-90
2022/05/26 05:44:31;;;;;;;40.40;14.05;;;;;;;19.77;100.00;100824.16;4982983;28;20033;-90
2022/05/26 05:46:57;;;;;;;26.35;13.38;;;;;;;19.73;100.00;100831.00;4998630;28;20091;-89
2022/05/26 05:49:49;;;;;;;36.38;13.20;;;;;;;19.73;100.00;100844.44;5034595;23;20592;-89
2022/05/26 05:52:19;;;;;;;25.23;12.57;;;;;;;19.77;100.00;100843.00;5058288;28;20040;-91
2022/05/26 05:54:45;;;;;;;26.92;13.57;;;;;;;19.79;100.00;100854.34;5022886;28;20064;-92
2022/05/26 05:57:10;;;;;;;28.55;14.40;;;;;;;19.74;100.00;100856.03;5058039;28;20029;-90
2022/05/26 05:59:36;;;;;;;30.85;14.25;;;;;;;19.74;100.00;100856.88;5040660;28;20056;-91
2022/05/26 06:02:02;;;;;;;29.70;15.18;;;;;;;19.77;100.00;100861.81;5056175;28;20025;-90
2022/05/26 06:04:28;;;;;;;24.05;13.60;;;;;;;20.12;100.00;100871.16;5021353;28;20041;-89
2022/05/26 06:06:53;;;;;;;21.92;13.23;;;;;;;20.34;100.00;100865.47;5041529;28;20472;-91
2022/05/26 06:09:20;;;;;;;30.23;13.43;;;;;;;20.34;100.00;100862.78;5040248;28;20068;-90
2022/05/26 06:11:47;;;;;;;21.95;12.70;;;;;;;20.46;100.00;100861.84;5057685;28;20032;-92
2022/05/26 06:14:13;;;;;;;23.02;13.30;;;;;;;20.47;100.00;100863.53;5040347;28;20071;-93
2022/05/26 06:16:39;;;;;;;21.83;13.25;;;;;;;20.55;100.00;100871.31;5066251;28;20503;-92
2022/05/26 06:19:05;;;;;;;23.60;13.35;;;;;;;20.67;100.00;100863.38;5060985;28;20384;-91
2022/05/26 06:21:32;;;;;;;20.48;13.15;;;;;;;20.71;100.00;100859.19;5060610;28;20033;-91
2022/05/26 06:23:58;;;;;;;25.77;12.65;;;;;;;20.87;100.00;100853.25;5009330;28;20029;-93
2022/05/26 06:26:28;;;;;;;24.85;13.00;;;;;;;21.14;100.00;100856.53;5039596;28;20501;-92
2022/05/26 06:37:13;;;;;;;29.77;14.43;;;;;;;21.33;100.00;100854.69;5039047;28;20064;-92
2022/05/26 06:37:13;;;;;;;23.40;13.07;;;;;;;22.59;100.00;100861.72;5043213;28;20040;-91
2022/05/26 06:39:39;;;;;;;27.42;14.30;;;;;;;22.90;100.00;100868.69;5038220;28;20067;-90
2022/05/26 06:42:05;;;;;;;33.08;13.05;;;;;;;22.82;100.00;100863.66;5037421;28;20037;-90
2022/05/26 06:44:38;;;;;;;28.70;12.50;;;;;;;22.27;100.00;100875.72;5037310;28;20041;-90
2022/05/26 06:47:09;;;;;;;22.85;13.38;;;;;;;22.12;100.00;100889.63;5036996;28;20045;-88
2022/05/26 06:49:37;;;;;;;23.92;13.63;;;;;;;22.04;100.00;100893.47;5037813;28;20048;-88
2022/05/26 06:52:03;;;;;;;25.70;13.52;;;;;;;22.28;100.00;100893.56;5019481;28;20052;-87
2022/05/26 06:54:30;;;;;;;25.10;12.45;;;;;;;22.57;100.00;100888.13;5054323;28;20029;-86
2022/05/26 06:56:56;;;;;;;22.35;12.82;;;;;;;22.65;100.00;100884.25;5035287;28;20087;-90
2022/05/26 06:59:21;;;;;;;25.50;12.93;;;;;;;22.64;100.00;100888.00;5048765;28;20040;-88
2022/05/26 07:01:47;;;;;;;24.88;12.57;;;;;;;22.62;100.00;100895.53;5050241;28;20536;-90
2022/05/26 07:04:13;;;;;;;22.20;12.52;;;;;;;22.67;100.00;100906.50;5053569;28;20032;-89
2022/05/26 07:06:38;;;;;;;29.70;13.60;;;;;;;23.04;100.00;100899.84;5041285;28;20029;-88
2022/05/26 07:09:04;;;;;;;25.73;13.90;;;;;;;23.01;100.00;100894.91;5026305;28;20377;-89
2022/05/26 07:11:30;;;;;;;28.33;14.77;;;;;;;23.06;100.00;100900.47;5022233;28;20411;-91
2022/05/26 07:13:57;;;;;;;24.10;14.13;;;;;;;23.18;100.00;100901.28;5024294;28;20024;-88
2022/05/26 07:16:22;;;;;;;28.88;14.38;;;;;;;23.10;100.00;100907.00;5039865;28;20128;-89
2022/05/26 07:18:50;;;;;;;35.70;16.58;;;;;;;22.85;100.00;100917.22;5036657;28;20111;-88
2022/05/26 07:21:16;;;;;;;29.08;15.48;;;;;;;22.71;100.00;100914.97;5034277;28;20041;-87
2022/05/26 07:23:42;;;;;;;25.95;15.60;;;;;;;22.77;100.00;100908.66;5035139;28;20499;-85
2022/05/26 07:26:13;;;;;;;29.13;16.23;;;;;;;22.70;100.00;100913.34;5053165;28;20048;-88
2022/05/26 07:28:40;;;;;;;25.95;16.08;;;;;;;22.62;100.00;100912.56;5053735;28;20094;-88
2022/05/26 07:31:07;;;;;;;27.20;15.90;;;;;;;22.55;100.00;100921.84;5061581;28;20067;-93
2022/05/26 07:33:33;;;;;;;32.45;17.05;;;;;;;22.46;100.00;100910.53;5074067;28;20440;-87
2022/05/26 07:35:59;;;;;;;29.65;16.50;;;;;;;22.68;100.00;100910.84;5073871;28;20086;-90
2022/05/26 07:41:22;;;;;;;28.35;14.82;;;;;;;23.61;100.00;100910.91;5068948;28;20028;-94
2022/05/26 07:43:58;;;;;;;24.15;15.68;;;;;;;23.61;100.00;100910.91;5073779;28;20060;-88
2022/05/26 07:46:26;;;;;;;33.92;17.00;;;;;;;23.77;99.45;100904.75;5074123;28;20098;-89
2022/05/26 07:48:52;;;;;;;25.98;15.40;;;;;;;24.15;97.47;100902.31;5073878;28;20032;-90
2022/05/26 07:51:21;;;;;;;28.83;14.60;;;;;;;24.42;96.19;100907.13;5040499;28;20065;-87
2022/05/26 07:53:47;;;;;;;22.02;13.95;;;;;;;24.94;92.62;100903.16;5038389;28;20033;-84
2022/05/26 07:56:17;;;;;;;25.92;15.65;;;;;;;25.34;91.26;100910.28;5055193;28;20217;-89
2022/05/26 07:58:43;;;;;;;30.38;16.50;;;;;;;25.42;90.00;100912.56;5057444;28;20064;-88
2022/05/26 08:01:10;;;;;;;28.30;16.95;;;;;;;24.82;92.97;100915.16;5033486;28;20032;-89
2022/05/26 08:03:38;;;;;;;35.65;18.58;;;;;;;24.31;96.11;100916.13;5075682;28;20021;-91
2022/05/26 08:06:04;;;;;;;27.05;16.45;;;;;;;24.52;95.12;100913.56;5076857;28;20045;-88
2022/05/26 08:08:34;;;;;;;37.92;18.73;;;;;;;24.17;100.00;100913.72;5083224;28;20040;-87
2022/05/26 08:11:00;;;;;;;35.20;20.45;;;;;;;23.76;100.00;100908.53;5080535;28;20033;-85
2022/05/26 08:13:25;;;;;;;36.22;21.65;;;;;;;23.54;100.00;100921.03;5093287;28;20028;-86
2022/05/26 08:15:52;;;;;;;36.35;21.30;;;;;;;23.66;100.00;100927.25;5091371;28;20045;-89
2022/05/26 08:18:18;;;;;;;27.77;20.90;;;;;;;23.85;100.00;100922.50;5071961;28;20036;-87
2022/05/26 08:20:43;;;;;;;40.22;21.80;;;;;;;23.87;100.00;100918.50;5071763;28;20067;-88
2022/05/26 08:23:09;;;;;;;38.10;21.52;;;;;;;23.92;100.00;100926.72;5093964;28;20040;-88
2022/05/26 08:25:35;;;;;;;36.95;21.73;;;;;;;23.74;100.00;100920.63;5027913;28;20030;-92
2022/05/26 08:28:01;;;;;;;40.75;21.35;;;;;;;23.73;100.00;100927.13;5014693;28;20048;-90
2022/05/26 08:30:27;;;;;;;32.00;19.50;;;;;;;24.09;100.00;100924.91;5047920;28;20049;-87
2022/05/26 08:32:55;;;;;;;31.35;18.25;;;;;;;24.39;97.97;100935.53;5076853;28;20036;-90
2022/05/26 08:35:21;;;;;;;30.75;17.98;;;;;;;24.40;97.42;100939.88;5076954;28;20040;-86
2022/05/26 08:37:56;;;;;;;38.25;20.98;;;;;;;24.46;94.99;100941.59;5066254;28;20049;-93
2022/05/26 08:41:00;;;;;;;31.63;18.42;;;;;;;25.15;92.71;100945.00;5042625;28;20036;-89
2022/05/26 08:43:37;;;;;;;29.13;17.23;;;;;;;25.65;91.10;100939.53;5031803;28;20059;-91
2022/05/26 08:46:12;;;;;;;41.20;19.23;;;;;;;26.02;87.11;100940.53;5031853;28;20068;-93
2022/05/26 08:49:07;;;;;;;22.60;16.80;;;;;;;26.58;83.93;100949.34;5058129;28;20028;-90
2022/05/26 08:52:00;;;;;;;36.03;17.52;;;;;;;26.58;83.25;100955.56;5129288;23;20172;-89
2022/05/26 08:54:56;;;;;;;32.15;19.30;;;;;;;27.08;81.90;100957.94;5066708;28;20036;-89
2022/05/26 08:57:54;;;;;;;32.22;19.90;;;;;;;27.00;81.12;100966.63;5088397;28;20051;-89
2022/05/26 09:00:22;;;;;;;33.85;19.23;;;;;;;27.39;79.07;100966.34;5133136;22;20051;-94
2022/05/26 09:02:58;;;;;;;32.78;19.42;;;;;;;28.00;79.08;100962.09;5040130;28;20041;-90
2022/05/26 09:05:24;;;;;;;31.98;18.85;;;;;;;27.90;76.17;100968.31;5055788;28;20036;-90
2022/05/26 09:13:56;;;;;;;33.22;19.63;;;;;;;28.37;76.12;100987.31;5035929;28;20037;-89
2022/05/26 09:16:22;;;;;;;30.15;20.42;;;;;;;27.50;79.15;100989.88;5036104;28;20623;-87
2022/05/26 09:19:15;;;;;;;35.15;22.10;;;;;;;27.14;79.72;100992.31;5037476;28;20045;-91
2022/05/26 09:21:42;;;;;;;33.88;21.10;;;;;;;27.59;78.72;100994.56;5043632;28;20076;-90
2022/05/26 09:24:17;;;;;;;31.20;20.45;;;;;;;27.20;80.43;100991.28;5042188;28;20071;-87
2022/05/26 09:26:58;;;;;;;35.35;19.95;;;;;;;28.14;77.49;100983.16;5035447;28;20036;-88
2022/05/26 09:29:31;;;;;;;29.85;18.30;;;;;;;28.85;74.12;100986.09;5035917;28;20041;-90
2022/05/26 09:31:58;;;;;;;32.35;20.70;;;;;;;28.81;73.18;100984.16;5058392;28;20430;-94
2022/05/26 09:34:33;;;;;;;30.60;19.33;;;;;;;28.18;72.94;100978.81;5041430;28;20483;-91
2022/05/26 09:37:07;;;;;;;35.55;21.02;;;;;;;27.71;77.37;100986.19;5055368;28;20029;-90
2022/05/26 09:39:42;;;;;;;30.48;17.88;;;;;;;28.10;75.57;100983.97;5054524;28;20553;-89
2022/05/26 09:42:16;;;;;;;33.30;21.65;;;;;;;28.37;75.05;101000.16;5036769;28;20094;-90
2022/05/26 09:44:55;;;;;;;30.58;17.83;;;;;;;28.87;74.10;100986.63;5037635;28;20498;-92
2022/05/26 09:47:39;;;;;;;28.75;19.73;;;;;;;28.07;79.31;100995.41;5067749;28;20045;-92
2022/05/26 09:50:08;;;;;;;35.10;22.40;;;;;;;28.44;74.22;100996.06;5060377;28;20043;-92
2022/05/26 09:52:44;;;;;;;33.60;21.15;;;;;;;28.61;72.96;100990.38;5056565;28;20503;-91
2022/05/26 09:55:31;;;;;;;34.22;22.70;;;;;;;28.22;75.07;100988.09;5041283;28;20033;-92
2022/05/26 09:58:39;;;;;;;32.50;22.92;;;;;;;28.09;75.73;100988.59;5041483;28;20473;-92
2022/05/26 10:01:27;;;;;;;34.33;20.77;;;;;;;28.20;74.68;100995.72;4974806;28;20038;-91
2022/05/26 10:04:47;;;;;;;31.63;21.92;;;;;;;27.89;74.99;100993.09;5001673;28;20105;-94
2022/05/26 10:07:25;;;;;;;29.48;19.48;;;;;;;28.20;73.74;100984.00;4964275;28;20046;-90
2022/05/26 10:10:01;;;;;;;32.22;19.27;;;;;;;28.77;72.00;100986.59;4978878;28;20046;-91
2022/05/26 10:12:49;;;;;;;30.27;20.70;;;;;;;28.38;74.22;100985.41;5002082;28;20045;-92
2022/05/26 10:15:20;;;;;;;33.47;22.38;;;;;;;28.23;75.08;100987.03;5020532;28;20041;-90
2022/05/26 10:18:10;;;;;;;34.75;18.83;;;;;;;28.16;71.45;100989.16;5031564;28;20468;-88
2022/05/26 10:20:51;;;;;;;38.00;20.15;;;;;;;28.14;72.72;100980.41;5064491;28;20156;-88
2022/05/26 10:23:38;;;;;;;33.72;18.98;;;;;;;28.23;72.94;100983.47;5040821;28;20044;-91
2022/05/26 10:26:25;;;;;;;30.52;17.05;;;;;;;28.71;72.45;100984.97;5058544;28;20529;-90
2022/05/26 10:28:53;;;;;;;33.67;17.25;;;;;;;29.20;71.78;100987.97;5059155;28;20049;-92
2022/05/26 10:31:45;;;;;;;30.00;17.08;;;;;;;29.03;69.11;100982.81;5024027;28;20091;-93
2022/05/26 10:34:52;;;;;;;34.73;17.30;;;;;;;29.02;69.68;100992.09;5039438;28;20411;-93
2022/05/26 10:37:39;;;;;;;32.55;15.55;;;;;;;28.38;71.79;100993.59;5028802;28;20049;-92
2022/05/26 10:40:13;;;;;;;29.75;14.88;;;;;;;28.47;71.64;100981.09;5038460;28;20033;-90
2022/05/26 10:42:45;;;;;;;24.23;15.45;;;;;;;28.92;71.46;100997.56;5051097;28;20048;-88
2022/05/26 10:45:33;;;;;;;29.95;15.93;;;;;;;28.80;70.06;101007.91;5055372;28;20132;-90
2022/05/26 10:48:27;;;;;;;26.13;13.57;;;;;;;28.45;70.56;101002.34;5036827;28;20040;-90
2022/05/26 10:51:16;;;;;;;31.70;15.77;;;;;;;28.17;72.14;100993.50;5054644;28;20590;-90
2022/05/26 10:53:54;;;;;;;32.38;14.40;;;;;;;28.04;73.20;100985.00;5022448;28;20040;-88
2022/05/26 10:56:39;;;;;;;30.45;14.13;;;;;;;27.73;73.85;100994.91;5065701;28;20059;-87
2022/05/26 10:59:16;;;;;;;31.38;13.93;;;;;;;27.70;75.42;100981.84;5069047;28;20033;-88
2022/05/26 11:02:19;;;;;;;30.50;13.65;;;;;;;27.84;73.83;100991.16;5067588;28;20052;-92
2022/05/26 11:05:06;;;;;;;29.95;13.60;;;;;;;27.28;76.31;100995.38;5063585;28;20033;-89
2022/05/26 11:07:49;;;;;;;28.75;14.57;;;;;;;26.84;79.53;100992.03;5042932;28;20033;-87
2022/05/26 11:10:28;;;;;;;29.85;14.25;;;;;;;26.57;83.00;100992.03;5038489;28;20040;-89
2022/05/26 11:13:00;;;;;;;27.55;15.20;;;;;;;26.25;84.58;100974.00;5038477;28;20029;-89
2022/05/26 11:18:43;;;;;;;27.88;16.02;;;;;;;26.21;85.60;100981.81;5058558;28;20036;-87
2022/05/26 11:21:14;;;;;;;25.15;14.05;;;;;;;26.33;85.76;100976.25;5063000;28;20044;-89
2022/05/26 11:23:41;;;;;;;29.17;15.27;;;;;;;26.36;84.31;100978.44;5055881;28;20056;-89
2022/05/26 11:26:18;;;;;;;25.52;14.27;;;;;;;26.42;84.31;100983.69;5060340;28;20041;-89
2022/05/26 11:28:56;;;;;;;39.00;16.50;;;;;;;26.39;84.44;100977.94;5047330;28;20036;-91
2022/05/26 11:37:40;;;;;;;30.80;16.20;;;;;;;26.49;82.35;100983.47;5047885;28;20044;-87
2022/05/26 11:40:33;;;;;;;32.17;15.30;;;;;;;26.64;83.17;100970.06;5053743;28;20037;-91
2022/05/26 11:43:01;;;;;;;35.95;15.00;;;;;;;26.32;85.26;100966.44;5043226;28;20091;-92
2022/05/26 11:45:34;;;;;;;28.45;16.00;;;;;;;26.37;85.50;100971.94;5043139;28;20063;-92
2022/05/26 11:48:23;;;;;;;29.63;15.40;;;;;;;26.36;84.21;100968.41;5058836;28;20045;-88
2022/05/26 11:50:48;;;;;;;29.60;14.82;;;;;;;26.29;83.95;100953.34;5043171;28;20057;-86
2022/05/26 11:53:38;;;;;;;29.20;15.20;;;;;;;26.39;81.75;100958.91;5028023;28;20026;-88
2022/05/26 11:56:30;;;;;;;27.85;14.60;;;;;;;26.49;80.91;100948.13;5049815;28;20476;-86
2022/05/26 11:59:32;;;;;;;36.42;16.27;;;;;;;26.20;82.70;100940.25;5046749;28;20092;-89
2022/05/26 12:02:08;;;;;;;33.65;16.63;;;;;;;26.29;82.84;100945.22;5055037;28;20033;-86
2022/05/26 12:04:42;;;;;;;26.80;15.35;;;;;;;26.18;83.88;100939.66;5075965;28;20044;-91
2022/05/26 12:07:35;;;;;;;26.83;15.02;;;;;;;26.42;81.83;100933.94;5065162;28;20053;-86
2022/05/26 12:10:16;;;;;;;29.38;15.10;;;;;;;26.39;81.30;100934.44;5060965;28;20063;-85